Dayton, Oregon
Current Conditions -  °F | °C
As of 2:53 AM on Monday 20 Oct 2014 (Local Time) from KMMV Reporting Station
Light Rain Light Rain  
Wind Chill: 60°   Ceiling: 3900
Heat Index: 60°   Visibility: 10mi
Dew Point: 56°   Wind: 7mph
Humidity: 86%   Direction: 230°SW
Pressure: 29.75"   Gusts: NA
Location:  45.22°N, 123.08°W
Report Text: KMMV 200953Z AUTO 23006KT 10SM -RA BKN039 OVC080 16/13 A2975 RMK AO2 SLP072 P0001 T01560133 $
Loading
Personal Weather Stations






























Interactive Weather Map
Tropical Storm Tracking
New forecast layout! Learn more

10-Day Weather Forecast

Advertisements
Track Severe Weather on mobile